Time,TemperatureF,DewpointF,PressureIn,WindDirection,WindDirectionDegrees,WindSpeedMPH,WindSpeedGustMPH,Humidity,HourlyPrecipIn,Conditions,Clouds,dailyrainin,SoftwareType,DateUTC
2013-05-07 00:02:00,58.0,50.0,30.04,NNE,26,0.0,0.0,74,0.00,,,0.00,,2013-05-07 05:02:00,
2013-05-07 00:12:00,58.0,50.0,30.04,NNE,26,0.0,0.0,74,0.00,,,0.00,,2013-05-07 05:12:00,
2013-05-07 00:22:00,58.0,50.0,30.03,NNE,26,0.0,0.0,76,0.00,,,0.00,,2013-05-07 05:22:00,
2013-05-07 00:32:00,56.0,49.0,30.03,NNE,26,0.0,0.0,78,0.00,,,0.00,,2013-05-07 05:32:00,
2013-05-07 00:42:00,56.0,49.0,30.03,NNE,26,0.0,0.0,78,0.00,,,0.00,,2013-05-07 05:42:00,
2013-05-07 00:52:00,56.0,50.0,30.03,NNE,26,0.0,0.0,79,0.00,,,0.00,,2013-05-07 05:52:00,
2013-05-07 01:02:00,56.0,50.0,30.03,NNE,26,0.0,0.0,80,0.00,,,0.00,,2013-05-07 06:02:00,
2013-05-07 01:12:00,56.0,50.0,30.03,NNE,26,0.0,0.0,80,0.00,,,0.00,,2013-05-07 06:12:00,
2013-05-07 01:22:00,56.0,50.0,30.03,NNE,26,0.0,0.0,79,0.00,,,0.00,,2013-05-07 06:22:00,
2013-05-07 01:32:00,56.0,50.0,30.03,NNE,26,0.0,0.0,79,0.00,,,0.00,,2013-05-07 06:32:00,
2013-05-07 01:42:00,56.0,50.0,30.03,NNE,26,0.0,0.0,79,0.00,,,0.00,,2013-05-07 06:42:00,
2013-05-07 01:52:00,55.0,49.0,30.03,NNE,26,0.0,0.0,81,0.00,,,0.00,,2013-05-07 06:52:00,
2013-05-07 02:02:00,55.0,49.0,30.03,NNE,26,0.0,0.0,81,0.00,,,0.00,,2013-05-07 07:02:00,
2013-05-07 02:11:00,55.0,49.0,30.03,NNE,26,0.0,0.0,81,0.00,,,0.00,,2013-05-07 07:11:00,
2013-05-07 02:22:00,55.0,49.0,30.03,ENE,71,2.0,3.0,81,0.00,,,0.00,,2013-05-07 07:22:00,
2013-05-07 02:31:00,55.0,49.0,30.03,ENE,71,1.0,3.0,81,0.00,,,0.00,,2013-05-07 07:31:00,
2013-05-07 02:42:00,55.0,49.0,30.03,ENE,71,1.0,3.0,81,0.00,,,0.00,,2013-05-07 07:42:00,
2013-05-07 02:52:00,55.0,49.0,30.02,ENE,71,0.0,3.0,81,0.00,,,0.00,,2013-05-07 07:52:00,
2013-05-07 03:02:00,55.0,49.0,30.02,East,79,0.0,1.0,81,0.00,,,0.00,,2013-05-07 08:02:00,
2013-05-07 03:11:00,55.0,49.0,30.02,East,79,0.0,1.0,81,0.00,,,0.00,,2013-05-07 08:11:00,
2013-05-07 03:21:00,55.0,49.0,30.01,East,88,2.0,3.0,81,0.00,,,0.00,,2013-05-07 08:21:00,
2013-05-07 03:31:00,55.0,49.0,30.01,East,88,2.0,3.0,81,0.00,,,0.00,,2013-05-07 08:31:00,
2013-05-07 03:42:00,55.0,49.0,30.01,East,88,2.0,3.0,81,0.00,,,0.00,,2013-05-07 08:42:00,
2013-05-07 03:52:00,56.0,50.0,30.01,ESE,123,2.0,4.0,81,0.00,,,0.00,,2013-05-07 08:52:00,
2013-05-07 04:01:00,56.0,50.0,30.01,SE,136,2.0,4.0,81,0.00,,,0.00,,2013-05-07 09:01:00,
2013-05-07 04:11:00,56.0,50.0,30.01,SE,136,2.0,4.0,81,0.00,,,0.00,,2013-05-07 09:11:00,
2013-05-07 04:22:00,56.0,50.0,30.01,SE,138,3.0,6.0,81,0.00,,,0.00,,2013-05-07 09:22:00,
2013-05-07 04:33:00,56.0,50.0,30.01,SE,146,2.0,5.0,80,0.00,,,0.00,,2013-05-07 09:33:00,
2013-05-07 04:42:00,56.0,50.0,30.01,SE,146,2.0,5.0,80,0.00,,,0.00,,2013-05-07 09:42:00,
2013-05-07 04:52:00,56.0,50.0,30.01,SE,142,3.0,6.0,81,0.00,,,0.00,,2013-05-07 09:52:00,
2013-05-07 05:03:00,54.0,49.0,30.01,SSE,153,0.0,4.0,82,0.00,,,0.00,,2013-05-07 10:03:00,
2013-05-07 05:12:00,54.0,49.0,30.01,SSE,153,0.0,4.0,82,0.00,,,0.00,,2013-05-07 10:12:00,
2013-05-07 05:23:00,53.0,49.0,30.01,South,187,4.0,6.0,85,0.00,,,0.00,,2013-05-07 10:23:00,
2013-05-07 05:32:00,52.0,49.0,30.01,SSW,196,3.0,7.0,88,0.00,,,0.00,,2013-05-07 10:32:00,
2013-05-07 05:42:00,52.0,49.0,30.01,SSW,198,4.0,7.0,89,0.00,,,0.00,,2013-05-07 10:42:00,
2013-05-07 05:52:00,52.0,49.0,30.01,SSW,198,4.0,7.0,89,0.00,,,0.00,,2013-05-07 10:52:00,
2013-05-07 06:02:00,53.0,50.0,30.02,SSW,198,4.0,6.0,88,0.00,,,0.00,,2013-05-07 11:02:00,
2013-05-07 06:12:00,53.0,50.0,30.02,SSW,198,4.0,6.0,88,0.00,,,0.00,,2013-05-07 11:12:00,
2013-05-07 06:22:00,53.0,50.0,30.02,SSW,198,3.0,5.0,88,0.00,,,0.00,,2013-05-07 11:22:00,
2013-05-07 06:32:00,53.0,50.0,30.02,SSW,198,3.0,5.0,89,0.00,,,0.00,,2013-05-07 11:32:00,
2013-05-07 06:42:00,53.0,50.0,30.02,SSW,198,3.0,5.0,89,0.00,,,0.00,,2013-05-07 11:42:00,
2013-05-07 06:52:00,53.0,50.0,30.02,SSW,198,0.0,4.0,89,0.00,,,0.00,,2013-05-07 11:52:00,
2013-05-07 07:02:00,50.0,48.0,30.02,SSW,198,0.0,0.0,93,0.00,,,0.00,,2013-05-07 12:02:00,
2013-05-07 07:11:00,50.0,48.0,30.02,SSW,198,0.0,0.0,93,0.00,,,0.00,,2013-05-07 12:11:00,
2013-05-07 07:21:00,50.0,48.0,30.02,SSW,198,0.0,0.0,92,0.00,,,0.00,,2013-05-07 12:21:00,
2013-05-07 07:32:00,50.0,48.0,30.03,SSW,198,0.0,0.0,92,0.00,,,0.00,,2013-05-07 12:32:00,
2013-05-07 07:42:00,50.0,48.0,30.03,SSW,198,0.0,0.0,92,0.00,,,0.00,,2013-05-07 12:42:00,
2013-05-07 07:52:00,50.0,47.0,30.04,SSW,198,0.0,0.0,90,0.00,,,0.00,,2013-05-07 12:52:00,
2013-05-07 08:02:00,52.0,49.0,30.04,SSW,198,0.0,0.0,88,0.00,,,0.00,,2013-05-07 13:02:00,
2013-05-07 08:11:00,52.0,49.0,30.04,SSW,198,0.0,0.0,88,0.00,,,0.00,,2013-05-07 13:11:00,
2013-05-07 08:21:00,53.0,49.0,30.04,SSW,198,0.0,0.0,87,0.00,,,0.00,,2013-05-07 13:21:00,
2013-05-07 08:32:00,55.0,50.0,30.05,SSW,198,0.0,0.0,83,0.00,,,0.00,,2013-05-07 13:32:00,
2013-05-07 08:42:00,55.0,50.0,30.05,SSW,198,0.0,0.0,83,0.00,,,0.00,,2013-05-07 13:42:00,
2013-05-07 08:52:00,55.0,51.0,30.05,SSW,198,0.0,1.0,86,0.00,,,0.00,,2013-05-07 13:52:00,
2013-05-07 09:02:00,57.0,52.0,30.05,SSW,198,0.0,0.0,82,0.00,,,0.00,,2013-05-07 14:02:00,
2013-05-07 09:11:00,57.0,52.0,30.05,SSW,198,0.0,0.0,82,0.00,,,0.00,,2013-05-07 14:11:00,
2013-05-07 09:21:00,58.0,52.0,30.05,SSW,198,0.0,2.0,80,0.00,,,0.00,,2013-05-07 14:21:00,
2013-05-07 09:32:00,58.0,52.0,30.05,SSW,198,0.0,3.0,80,0.00,,,0.00,,2013-05-07 14:32:00,
2013-05-07 09:42:00,58.0,52.0,30.05,SSW,198,0.0,3.0,80,0.00,,,0.00,,2013-05-07 14:42:00,
2013-05-07 09:52:00,60.0,53.0,30.05,SSW,198,1.0,3.0,79,0.00,,,0.00,,2013-05-07 14:52:00,
2013-05-07 10:01:00,61.0,53.0,30.04,SSW,198,1.0,5.0,76,0.00,,,0.00,,2013-05-07 15:01:00,
2013-05-07 10:12:00,61.0,53.0,30.04,SSW,198,1.0,5.0,76,0.00,,,0.00,,2013-05-07 15:12:00,
2013-05-07 10:21:00,63.0,54.0,30.04,SSW,195,3.0,6.0,73,0.00,,,0.00,,2013-05-07 15:21:00,
2013-05-07 10:33:00,64.0,54.0,30.04,South,178,2.0,5.0,70,0.00,,,0.00,,2013-05-07 15:33:00,
2013-05-07 10:42:00,64.0,54.0,30.04,South,178,2.0,5.0,70,0.00,,,0.00,,2013-05-07 15:42:00,
2013-05-07 10:53:00,64.0,54.0,30.04,South,178,2.0,5.0,70,0.00,,,0.00,,2013-05-07 15:53:00,
2013-05-07 11:03:00,64.0,54.0,30.03,SE,126,0.0,5.0,70,0.00,,,0.00,,2013-05-07 16:03:00,
2013-05-07 11:12:00,64.0,54.0,30.03,SE,126,0.0,5.0,70,0.00,,,0.00,,2013-05-07 16:12:00,
2013-05-07 11:22:00,64.0,54.0,30.03,SSW,212,1.0,5.0,70,0.00,,,0.00,,2013-05-07 16:22:00,
2013-05-07 11:32:00,65.0,54.0,30.02,SSE,161,2.0,7.0,68,0.00,,,0.00,,2013-05-07 16:32:00,
2013-05-07 11:41:00,65.0,54.0,30.02,SSE,161,2.0,7.0,68,0.00,,,0.00,,2013-05-07 16:41:00,
2013-05-07 11:51:00,65.0,54.0,30.02,SSE,161,2.0,7.0,68,0.00,,,0.00,,2013-05-07 16:51:00,
2013-05-07 12:01:00,66.0,52.0,30.02,South,182,6.0,8.0,61,0.00,,,0.00,,2013-05-07 17:01:00,
2013-05-07 12:12:00,66.0,52.0,30.02,South,182,6.0,8.0,61,0.00,,,0.00,,2013-05-07 17:12:00,
2013-05-07 12:21:00,66.0,52.0,30.01,South,180,5.0,10.0,61,0.00,,,0.00,,2013-05-07 17:21:00,
2013-05-07 12:31:00,66.0,53.0,30.01,South,185,2.0,9.0,62,0.00,,,0.00,,2013-05-07 17:31:00,
2013-05-07 12:41:00,66.0,53.0,30.01,South,185,2.0,9.0,62,0.00,,,0.00,,2013-05-07 17:41:00,
2013-05-07 12:52:00,66.0,53.0,30.01,South,185,2.0,9.0,62,0.00,,,0.00,,2013-05-07 17:52:00,
2013-05-07 13:01:00,68.0,53.0,30.00,SSW,209,2.0,11.0,58,0.00,,,0.00,,2013-05-07 18:01:00,
2013-05-07 13:11:00,68.0,53.0,30.00,SSW,209,2.0,11.0,58,0.00,,,0.00,,2013-05-07 18:11:00,
2013-05-07 13:21:00,68.0,51.0,30.00,SSW,206,6.0,10.0,54,0.00,,,0.00,,2013-05-07 18:21:00,
2013-05-07 13:31:00,69.0,51.0,29.99,South,188,7.0,12.0,52,0.00,,,0.00,,2013-05-07 18:31:00,
2013-05-07 13:42:00,69.0,51.0,29.99,South,188,7.0,12.0,52,0.00,,,0.00,,2013-05-07 18:42:00,
2013-05-07 13:51:00,69.0,52.0,29.99,South,180,5.0,13.0,55,0.00,,,0.00,,2013-05-07 18:51:00,
2013-05-07 14:02:00,69.0,50.0,29.98,South,190,6.0,13.0,50,0.00,,,0.00,,2013-05-07 19:02:00,
2013-05-07 14:11:00,69.0,50.0,29.98,South,190,6.0,13.0,50,0.00,,,0.00,,2013-05-07 19:11:00,
2013-05-07 14:21:00,69.0,50.0,29.98,South,190,7.0,12.0,50,0.00,,,0.00,,2013-05-07 19:21:00,
2013-05-07 14:32:00,71.0,50.0,29.97,SW,220,3.0,15.0,48,0.00,,,0.00,,2013-05-07 19:32:00,
2013-05-07 14:42:00,71.0,50.0,29.97,SW,220,3.0,15.0,48,0.00,,,0.00,,2013-05-07 19:42:00,
2013-05-07 14:52:00,70.0,51.0,29.97,South,191,7.0,14.0,51,0.00,,,0.00,,2013-05-07 19:52:00,
2013-05-07 15:02:00,71.0,50.0,29.97,SSE,162,1.0,15.0,47,0.00,,,0.00,,2013-05-07 20:02:00,
2013-05-07 15:12:00,71.0,50.0,29.97,SSE,162,1.0,15.0,47,0.00,,,0.00,,2013-05-07 20:12:00,
2013-05-07 15:22:00,71.0,51.0,29.96,SSW,196,4.0,16.0,49,0.00,,,0.00,,2013-05-07 20:22:00,
2013-05-07 15:32:00,70.0,50.0,29.96,SSE,153,9.0,15.0,49,0.00,,,0.00,,2013-05-07 20:32:00,
2013-05-07 15:42:00,70.0,50.0,29.96,SSE,153,9.0,15.0,49,0.00,,,0.00,,2013-05-07 20:42:00,
2013-05-07 15:51:00,72.0,50.0,29.95,SW,221,5.0,11.0,46,0.00,,,0.00,,2013-05-07 20:51:00,
2013-05-07 16:01:00,71.0,50.0,29.94,SE,138,2.0,12.0,48,0.00,,,0.00,,2013-05-07 21:01:00,
2013-05-07 16:11:00,71.0,50.0,29.94,SE,138,2.0,12.0,48,0.00,,,0.00,,2013-05-07 21:11:00,
2013-05-07 16:22:00,73.0,52.0,29.93,SSE,155,4.0,9.0,47,0.00,,,0.00,,2013-05-07 21:22:00,
2013-05-07 16:32:00,71.0,50.0,29.93,South,180,2.0,13.0,47,0.00,,,0.00,,2013-05-07 21:32:00,
2013-05-07 16:42:00,71.0,50.0,29.93,South,180,2.0,13.0,47,0.00,,,0.00,,2013-05-07 21:42:00,
2013-05-07 16:52:00,71.0,50.0,29.92,South,180,0.0,10.0,48,0.00,,,0.00,,2013-05-07 21:52:00,
2013-05-07 17:02:00,71.0,52.0,29.92,SSE,158,2.0,9.0,51,0.00,,,0.00,,2013-05-07 22:02:00,
2013-05-07 17:13:00,71.0,52.0,29.92,SSE,158,2.0,9.0,51,0.00,,,0.00,,2013-05-07 22:13:00,
2013-05-07 17:22:00,71.0,51.0,29.92,SSE,159,4.0,10.0,49,0.00,,,0.00,,2013-05-07 22:22:00,
2013-05-07 17:33:00,71.0,51.0,29.92,SSE,161,4.0,8.0,50,0.00,,,0.00,,2013-05-07 22:33:00,
2013-05-07 17:42:00,71.0,51.0,29.92,SSE,161,4.0,8.0,50,0.00,,,0.00,,2013-05-07 22:42:00,
2013-05-07 17:52:00,70.0,51.0,29.91,SSE,163,1.0,8.0,51,0.00,,,0.00,,2013-05-07 22:52:00,
2013-05-07 18:02:00,70.0,52.0,29.91,SSE,166,3.0,6.0,52,0.00,,,0.00,,2013-05-07 23:02:00,
2013-05-07 18:12:00,70.0,52.0,29.91,SSE,166,3.0,6.0,52,0.00,,,0.00,,2013-05-07 23:12:00,
2013-05-07 18:21:00,70.0,52.0,29.91,SSE,161,3.0,8.0,53,0.00,,,0.00,,2013-05-07 23:21:00,
2013-05-07 18:32:00,70.0,52.0,29.91,SSE,164,2.0,9.0,53,0.00,,,0.00,,2013-05-07 23:32:00,
2013-05-07 18:42:00,70.0,52.0,29.91,SSE,164,2.0,9.0,53,0.00,,,0.00,,2013-05-07 23:42:00,
2013-05-07 18:52:00,70.0,53.0,29.91,SSE,158,0.0,7.0,54,0.00,,,0.00,,2013-05-07 23:52:00,
2013-05-07 19:02:00,69.0,52.0,29.90,SSE,150,2.0,6.0,55,0.00,,,0.00,,2013-05-08 00:02:00,
2013-05-07 19:12:00,69.0,52.0,29.90,SSE,150,2.0,6.0,55,0.00,,,0.00,,2013-05-08 00:12:00,
2013-05-07 19:21:00,69.0,52.0,29.90,SSE,167,2.0,5.0,55,0.00,,,0.00,,2013-05-08 00:21:00,
2013-05-07 19:32:00,65.0,54.0,29.91,West,277,11.0,17.0,68,0.00,,,0.00,,2013-05-08 00:32:00,
2013-05-07 19:42:00,65.0,54.0,29.91,West,277,11.0,17.0,68,0.00,,,0.00,,2013-05-08 00:42:00,
2013-05-07 19:51:00,61.0,55.0,29.91,WNW,285,10.0,21.0,80,0.00,,,0.00,,2013-05-08 00:51:00,
2013-05-07 20:02:00,60.0,55.0,29.91,WNW,297,4.0,10.0,85,0.01,,,0.01,,2013-05-08 01:02:00,
2013-05-07 20:11:00,60.0,55.0,29.91,WNW,297,4.0,10.0,85,0.01,,,0.01,,2013-05-08 01:11:00,
2013-05-07 20:21:00,59.0,55.0,29.90,WNW,293,4.0,7.0,87,0.01,,,0.01,,2013-05-08 01:21:00,
2013-05-07 20:32:00,59.0,55.0,29.90,WNW,296,0.0,5.0,87,0.01,,,0.01,,2013-05-08 01:32:00,
2013-05-07 20:42:00,59.0,55.0,29.90,WNW,296,0.0,5.0,87,0.01,,,0.01,,2013-05-08 01:42:00,
2013-05-07 20:52:00,59.0,55.0,29.90,WNW,296,0.0,2.0,87,0.01,,,0.01,,2013-05-08 01:52:00,
2013-05-07 21:01:00,59.0,55.0,29.90,NE,44,1.0,4.0,88,0.00,,,0.01,,2013-05-08 02:01:00,
2013-05-07 21:12:00,59.0,55.0,29.90,NE,44,1.0,4.0,88,0.00,,,0.01,,2013-05-08 02:12:00,
2013-05-07 21:22:00,58.0,55.0,29.90,ENE,75,3.0,7.0,90,0.00,,,0.01,,2013-05-08 02:22:00,
2013-05-07 21:32:00,58.0,55.0,29.91,ENE,75,0.0,3.0,91,0.00,,,0.01,,2013-05-08 02:32:00,
2013-05-07 21:42:00,58.0,55.0,29.91,ENE,75,0.0,3.0,91,0.00,,,0.01,,2013-05-08 02:42:00,
2013-05-07 21:52:00,58.0,55.0,29.91,ENE,75,0.0,0.0,91,0.00,,,0.01,,2013-05-08 02:52:00,
2013-05-07 22:02:00,58.0,55.0,29.92,WSW,240,4.0,10.0,91,0.00,,,0.01,,2013-05-08 03:02:00,
2013-05-07 22:11:00,58.0,55.0,29.92,WSW,240,4.0,10.0,91,0.00,,,0.01,,2013-05-08 03:11:00,
2013-05-07 22:21:00,59.0,55.0,29.93,West,260,2.0,6.0,88,0.00,,,0.01,,2013-05-08 03:21:00,
2013-05-07 22:32:00,59.0,56.0,29.93,West,261,0.0,6.0,89,0.01,,,0.02,,2013-05-08 03:32:00,
2013-05-07 22:43:00,59.0,56.0,29.93,West,261,0.0,6.0,89,0.01,,,0.02,,2013-05-08 03:43:00,
2013-05-07 22:52:00,58.0,55.0,29.93,West,261,0.0,0.0,91,0.01,,,0.02,,2013-05-08 03:52:00,
2013-05-07 23:02:00,58.0,56.0,29.92,West,261,0.0,0.0,92,0.01,,,0.02,,2013-05-08 04:02:00,
2013-05-07 23:13:00,58.0,56.0,29.92,West,261,0.0,0.0,92,0.01,,,0.02,,2013-05-08 04:13:00,
2013-05-07 23:23:00,58.0,56.0,29.92,West,261,0.0,0.0,92,0.01,,,0.02,,2013-05-08 04:23:00,
2013-05-07 23:33:00,58.0,56.0,29.91,West,261,0.0,0.0,93,0.00,,,0.02,,2013-05-08 04:33:00,
2013-05-07 23:43:00,58.0,56.0,29.91,West,261,0.0,0.0,93,0.00,,,0.02,,2013-05-08 04:43:00,
2013-05-07 23:52:00,58.0,56.0,29.91,NNE,30,2.0,4.0,93,0.00,,,0.02,,2013-05-08 04:52:00,